Terminal Aerodrome Forecast
Issued by NWS

Home | Current Version | Previous Version | Graphics & Text | Print | Product List | Glossary On
Versions: 1 2 3 4 5 6 7 8 9 10 11 12 13 14 15 16 17 18 19
000
FTUS43 KGRB 201600 AAA
TAFATW
TAF AMD
KATW 201600Z 2016/2112 24009KT P6SM SCT060 BKN120
     FM201800 29009G14KT P6SM BKN040
     FM202300 30004KT P6SM SCT040
     FM210500 33003KT P6SM SKC=

USA.gov is the U.S. government's official web portal to all federal, state and local government web resources and services.